createdAt,value
2023-01-10T00:02:38.353Z,16.88
2023-01-10T00:05:24.050Z,16.02
2023-01-10T00:08:14.894Z,18.73
2023-01-10T00:11:20.385Z,19.52
2023-01-10T00:14:06.042Z,16.85
2023-01-10T00:16:51.767Z,14.80
2023-01-10T00:19:37.430Z,16.05
2023-01-10T00:22:25.002Z,15.77
2023-01-10T00:25:10.456Z,15.45
2023-01-10T00:28:20.271Z,13.63
2023-01-10T00:31:07.106Z,14.18
2023-01-10T00:33:52.838Z,18.35
2023-01-10T00:36:38.605Z,15.65
2023-01-10T00:39:27.423Z,17.73
2023-01-10T00:42:31.577Z,15.52
2023-01-10T00:45:19.771Z,15.00
2023-01-10T00:48:05.476Z,22.13
2023-01-10T00:50:50.868Z,15.48
2023-01-10T00:53:36.713Z,14.57
2023-01-10T00:56:22.175Z,14.25
2023-01-10T00:59:08.554Z,22.02
2023-01-10T01:01:54.280Z,18.58
2023-01-10T01:04:39.745Z,19.27
2023-01-10T01:07:25.411Z,13.60
2023-01-10T01:10:29.296Z,18.45
2023-01-10T01:13:18.120Z,14.70
2023-01-10T01:16:03.729Z,15.63
2023-01-10T01:18:49.252Z,13.70
2023-01-10T01:21:35.003Z,15.88
2023-01-10T01:24:21.433Z,14.65
2023-01-10T01:27:07.149Z,12.35
2023-01-10T01:29:53.008Z,13.23
2023-01-10T01:32:39.259Z,12.27
2023-01-10T01:35:25.252Z,12.80
2023-01-10T01:38:11.498Z,14.48
2023-01-10T01:40:57.160Z,13.68
2023-01-10T01:44:01.246Z,11.93
2023-01-10T01:46:56.856Z,11.57
2023-01-10T01:49:45.051Z,14.07
2023-01-10T01:52:34.768Z,12.35
2023-01-10T01:55:20.753Z,11.02
2023-01-10T01:58:12.728Z,10.43
2023-01-10T02:00:58.717Z,11.57
2023-01-10T02:03:50.290Z,11.25
2023-01-10T02:06:36.191Z,11.93
2023-01-10T02:09:37.186Z,13.27
2023-01-10T02:12:24.337Z,11.75
2023-01-10T02:15:11.416Z,12.52
2023-01-10T02:17:58.170Z,8.98
2023-01-10T02:21:07.617Z,9.75
2023-01-10T02:24:27.207Z,8.25
2023-01-10T02:27:23.211Z,8.80
2023-01-10T02:30:11.589Z,10.02
2023-01-10T02:33:10.572Z,8.60
2023-01-10T02:36:02.395Z,7.60
2023-01-10T02:38:53.825Z,6.20
2023-01-10T02:42:02.560Z,5.75
2023-01-10T02:45:09.200Z,4.82
2023-01-10T02:47:56.519Z,5.32
2023-01-10T02:50:42.089Z,4.20
2023-01-10T02:53:39.865Z,3.60
2023-01-10T02:56:41.303Z,3.45
2023-01-10T02:59:57.999Z,4.03
2023-01-10T03:03:09.402Z,2.78
2023-01-10T03:05:55.553Z,2.20
2023-01-10T03:08:55.657Z,3.25
2023-01-10T03:11:46.580Z,1.92
2023-01-10T03:14:33.859Z,1.42
2023-01-10T03:17:20.696Z,5.50
2023-01-10T03:20:07.621Z,0.70
2023-01-10T03:22:56.400Z,1.17
2023-01-10T03:25:44.452Z,0.88
2023-01-10T03:28:35.546Z,1.40
2023-01-10T03:31:31.475Z,0.57
2023-01-10T03:34:17.813Z,0.80
2023-01-10T03:37:14.976Z,2.47
2023-01-10T03:40:14.886Z,0.40
2023-01-10T03:43:33.186Z,0.85
2023-01-10T03:46:27.857Z,0.63
2023-01-10T03:49:16.331Z,0.50
2023-01-10T03:52:03.529Z,0.32
2023-01-10T03:54:48.925Z,0.82
2023-01-10T03:57:34.441Z,6.55
2023-01-10T04:00:20.393Z,0.30
2023-01-10T04:03:05.818Z,0.50
2023-01-10T04:05:51.303Z,0.73
2023-01-10T04:08:37.108Z,1.23
2023-01-10T04:11:22.577Z,0.40
2023-01-10T04:14:08.363Z,1.05
2023-01-10T04:16:54.031Z,0.30
2023-01-10T04:19:39.815Z,0.35
2023-01-10T04:22:25.669Z,1.60
2023-01-10T04:25:11.712Z,0.50
2023-01-10T04:27:57.317Z,0.47
2023-01-10T04:30:43.068Z,0.40
2023-01-10T04:33:28.857Z,0.30
2023-01-10T04:36:14.655Z,0.32
2023-01-10T04:39:00.604Z,0.43
2023-01-10T04:41:46.387Z,0.93
2023-01-10T04:44:32.101Z,2.45
2023-01-10T04:47:17.689Z,0.40
2023-01-10T04:50:03.645Z,0.30
2023-01-10T04:52:49.401Z,2.72
2023-01-10T04:55:35.323Z,1.02
2023-01-10T04:58:21.236Z,0.30
2023-01-10T05:01:11.548Z,1.15
2023-01-10T05:03:57.178Z,1.60
2023-01-10T05:06:42.844Z,5.22
2023-01-10T05:09:28.313Z,0.65
2023-01-10T05:12:14.020Z,0.40
2023-01-10T05:14:59.904Z,0.30
2023-01-10T05:17:45.582Z,1.02
2023-01-10T05:20:31.299Z,1.05
2023-01-10T05:23:16.873Z,0.98
2023-01-10T05:26:14.444Z,1.10
2023-01-10T05:29:00.114Z,1.55
2023-01-10T05:31:45.697Z,1.52
2023-01-10T05:34:31.456Z,1.05
2023-01-10T05:37:17.126Z,1.85
2023-01-10T05:40:03.122Z,3.22
2023-01-10T05:42:48.954Z,1.48
2023-01-10T05:45:34.824Z,2.10
2023-01-10T05:48:20.626Z,0.65
2023-01-10T05:51:06.562Z,1.80
2023-01-10T05:53:52.311Z,3.42
2023-01-10T05:56:38.844Z,0.80
2023-01-10T05:59:28.323Z,1.13
2023-01-10T06:02:14.469Z,0.93
2023-01-10T06:04:59.995Z,0.60
2023-01-10T06:07:45.548Z,0.40
2023-01-10T06:10:31.254Z,2.15
2023-01-10T06:13:16.918Z,3.28
2023-01-10T06:16:03.005Z,0.52
2023-01-10T06:18:48.650Z,1.27
2023-01-10T06:21:34.010Z,0.98
2023-01-10T06:24:19.688Z,1.10
2023-01-10T06:27:05.903Z,1.20
2023-01-10T06:29:51.472Z,1.35
2023-01-10T06:32:37.674Z,4.05
2023-01-10T06:35:23.383Z,3.05
2023-01-10T06:38:09.205Z,3.03
2023-01-10T06:40:54.842Z,8.32
2023-01-10T06:43:41.374Z,2.38
2023-01-10T06:46:27.137Z,6.10
2023-01-10T06:49:12.786Z,2.97
2023-01-10T06:51:58.387Z,8.48
2023-01-10T06:54:44.020Z,5.60
2023-01-10T06:57:29.489Z,1.42
2023-01-10T07:00:15.233Z,1.60
2023-01-10T07:03:02.212Z,1.35
2023-01-10T07:05:47.711Z,1.38
2023-01-10T07:08:33.701Z,5.13
2023-01-10T07:11:19.303Z,0.40
2023-01-10T07:14:06.543Z,4.00
2023-01-10T07:16:52.439Z,1.02
2023-01-10T07:19:37.936Z,0.93
2023-01-10T07:22:23.596Z,1.42
2023-01-10T07:25:09.645Z,3.47
2023-01-10T07:27:55.628Z,3.10
2023-01-10T07:30:41.270Z,1.58
2023-01-10T07:33:27.579Z,2.55
2023-01-10T07:36:14.363Z,2.65
2023-01-10T07:39:00.117Z,3.00
2023-01-10T07:41:48.145Z,4.15
2023-01-10T07:44:34.816Z,0.43
2023-01-10T07:47:20.553Z,1.60
2023-01-10T07:50:06.819Z,2.60
2023-01-10T07:52:52.472Z,5.55
2023-01-10T07:55:40.155Z,7.50
2023-01-10T07:58:25.838Z,6.80
2023-01-10T08:01:11.795Z,2.42
2023-01-10T08:03:58.481Z,1.20
2023-01-10T08:06:44.369Z,1.83
2023-01-10T08:09:30.087Z,1.63
2023-01-10T08:12:18.875Z,4.75
2023-01-10T08:15:05.451Z,2.78
2023-01-10T08:17:51.528Z,1.10
2023-01-10T08:20:37.007Z,2.78
2023-01-10T08:23:22.763Z,2.47
2023-01-10T08:26:08.599Z,2.15
2023-01-10T08:28:54.247Z,3.03
2023-01-10T08:31:42.962Z,1.30
2023-01-10T08:34:29.438Z,1.00
2023-01-10T08:37:15.545Z,3.78
2023-01-10T08:40:01.896Z,1.05
2023-01-10T08:42:47.332Z,1.45
2023-01-10T08:45:34.157Z,1.58
2023-01-10T08:48:19.876Z,2.65
2023-01-10T08:51:10.259Z,1.88
2023-01-10T08:53:55.893Z,2.45
2023-01-10T08:56:42.197Z,2.05
2023-01-10T08:59:27.835Z,1.73
2023-01-10T09:02:14.000Z,1.02
2023-01-10T09:04:59.518Z,0.95
2023-01-10T09:07:46.419Z,0.77
2023-01-10T09:10:31.933Z,0.75
2023-01-10T09:13:17.819Z,1.90
2023-01-10T09:16:03.578Z,1.92
2023-01-10T09:18:49.465Z,3.58
2023-01-10T09:21:34.812Z,0.65
2023-01-10T09:24:20.491Z,1.45
2023-01-10T09:27:06.011Z,1.17
2023-01-10T09:29:51.635Z,0.80
2023-01-10T09:32:37.859Z,1.20
2023-01-10T09:35:25.747Z,0.90
2023-01-10T09:38:16.411Z,1.00
2023-01-10T09:41:23.948Z,1.75
2023-01-10T09:44:39.575Z,1.95
2023-01-10T09:47:35.354Z,1.48
2023-01-10T09:50:42.105Z,3.42
2023-01-10T09:53:31.240Z,4.30
2023-01-10T09:56:18.380Z,0.50
2023-01-10T09:59:04.178Z,0.80
2023-01-10T10:01:55.607Z,0.30
2023-01-10T10:04:43.086Z,0.85
2023-01-10T10:07:28.665Z,0.43
2023-01-10T10:10:26.468Z,0.82
2023-01-10T10:13:52.003Z,2.63
2023-01-10T10:16:49.388Z,3.90
2023-01-10T10:20:06.053Z,3.40
2023-01-10T10:23:00.455Z,0.60
2023-01-10T10:26:06.380Z,0.80
2023-01-10T10:29:17.640Z,1.00
2023-01-10T10:32:09.344Z,2.63
2023-01-10T10:35:02.414Z,0.77
2023-01-10T10:37:55.098Z,0.93
2023-01-10T10:40:44.121Z,0.80
2023-01-10T10:43:33.968Z,0.50
2023-01-10T10:46:20.289Z,1.63
2023-01-10T10:49:41.598Z,1.25
2023-01-10T10:52:32.333Z,8.88
2023-01-10T10:55:23.420Z,1.60
2023-01-10T10:58:14.856Z,0.80
2023-01-10T11:01:01.385Z,0.80
2023-01-10T11:03:47.145Z,1.05
2023-01-10T11:06:35.499Z,2.30
2023-01-10T11:09:29.883Z,0.70
2023-01-10T11:12:18.506Z,3.22
2023-01-10T11:15:04.296Z,0.68
2023-01-10T11:18:05.336Z,1.08
2023-01-10T11:21:06.702Z,2.40
2023-01-10T11:23:57.291Z,1.40
2023-01-10T11:26:43.214Z,1.85
2023-01-10T11:29:43.346Z,1.10
2023-01-10T11:32:49.241Z,1.20
2023-01-10T11:35:37.816Z,3.65
2023-01-10T11:38:24.876Z,6.20
2023-01-10T11:41:19.771Z,1.25
2023-01-10T11:44:25.487Z,1.77
2023-01-10T11:47:14.791Z,2.42
2023-01-10T11:50:02.357Z,3.97
2023-01-10T11:52:49.777Z,1.90
2023-01-10T11:55:38.403Z,1.42
2023-01-10T11:58:34.566Z,2.28
2023-01-10T12:01:45.267Z,3.05
2023-01-10T12:04:34.456Z,6.53
2023-01-10T12:07:20.069Z,2.05
2023-01-10T12:10:06.724Z,3.17
2023-01-10T12:12:55.481Z,3.60
2023-01-10T12:15:41.423Z,2.22
2023-01-10T12:18:26.916Z,4.57
2023-01-10T12:21:16.207Z,2.08
2023-01-10T12:24:07.158Z,2.85
2023-01-10T12:26:54.240Z,5.35
2023-01-10T12:29:53.823Z,1.23
2023-01-10T12:32:49.449Z,1.45
2023-01-10T12:35:48.172Z,5.03
2023-01-10T12:39:01.091Z,1.88
2023-01-10T12:42:13.793Z,1.40
2023-01-10T12:45:24.699Z,2.15
2023-01-10T12:48:39.096Z,2.63
2023-01-10T12:51:28.087Z,2.42
2023-01-10T12:54:19.035Z,1.75
2023-01-10T12:57:16.914Z,2.22
2023-01-10T13:00:08.038Z,8.90
2023-01-10T13:02:56.939Z,2.25
2023-01-10T13:05:45.372Z,1.77
2023-01-10T13:08:34.810Z,2.17
2023-01-10T13:11:22.751Z,4.35
2023-01-10T13:14:14.847Z,1.98
2023-01-10T13:17:16.181Z,2.95
2023-01-10T13:20:16.954Z,3.75
2023-01-10T13:23:30.080Z,1.80
2023-01-10T13:26:16.263Z,5.03
2023-01-10T13:29:03.853Z,3.95
2023-01-10T13:31:57.020Z,1.95
2023-01-10T13:34:43.118Z,0.90
2023-01-10T13:37:37.011Z,2.33
2023-01-10T13:40:28.179Z,1.48
2023-01-10T13:43:37.051Z,1.70
2023-01-10T13:46:22.753Z,1.27
2023-01-10T13:49:11.322Z,1.80
2023-01-10T13:52:33.988Z,1.25
2023-01-10T13:55:53.769Z,1.48
2023-01-10T13:58:59.887Z,1.92
2023-01-10T14:02:10.295Z,3.65
2023-01-10T14:05:06.789Z,1.35
2023-01-10T14:07:55.064Z,1.73
2023-01-10T14:10:41.133Z,6.05
2023-01-10T14:13:26.637Z,6.18
2023-01-10T14:16:39.185Z,7.65
2023-01-10T14:19:29.952Z,4.05
2023-01-10T14:22:28.008Z,6.53
2023-01-10T14:25:21.738Z,2.20
2023-01-10T14:28:22.803Z,6.65
2023-01-10T14:31:18.385Z,8.05
2023-01-10T14:34:05.746Z,7.55
2023-01-10T14:37:08.845Z,10.05
2023-01-10T14:39:56.135Z,4.97
2023-01-10T14:42:42.100Z,9.63
2023-01-10T14:45:45.329Z,4.45
2023-01-10T14:48:33.469Z,3.72
2023-01-10T14:51:26.214Z,5.93
2023-01-10T14:54:13.919Z,3.67
2023-01-10T14:56:59.504Z,3.15
2023-01-10T14:59:45.375Z,2.08
2023-01-10T15:02:31.399Z,1.70
2023-01-10T15:05:26.162Z,1.33
2023-01-10T15:08:21.516Z,2.30
2023-01-10T15:11:12.395Z,1.58
2023-01-10T15:14:08.150Z,1.95
2023-01-10T15:17:00.931Z,2.90
2023-01-10T15:19:51.361Z,1.25
2023-01-10T15:22:37.148Z,4.35
2023-01-10T15:25:33.591Z,3.17
2023-01-10T15:28:21.920Z,8.02
2023-01-10T15:31:11.308Z,5.15
2023-01-10T15:33:58.684Z,51.63
2023-01-10T15:36:51.321Z,13.70
2023-01-10T15:39:40.421Z,4.80
2023-01-10T15:42:27.301Z,3.08
2023-01-10T15:45:37.697Z,6.10
2023-01-10T15:48:43.871Z,3.13
2023-01-10T15:51:34.216Z,5.40
2023-01-10T15:54:19.972Z,8.07
2023-01-10T15:57:15.005Z,12.13
2023-01-10T16:00:00.833Z,9.77
2023-01-10T16:02:47.187Z,6.43
2023-01-10T16:05:33.196Z,7.30
2023-01-10T16:08:23.211Z,12.25
2023-01-10T16:11:39.335Z,8.93
2023-01-10T16:14:25.018Z,11.52
2023-01-10T16:17:12.498Z,7.90
2023-01-10T16:19:58.138Z,10.48
2023-01-10T16:22:45.402Z,8.50
2023-01-10T16:25:38.811Z,8.02
2023-01-10T16:28:27.332Z,4.93
2023-01-10T16:31:14.684Z,7.63
2023-01-10T16:34:00.633Z,4.50
2023-01-10T16:36:46.751Z,5.70
2023-01-10T16:39:32.684Z,4.25
2023-01-10T16:42:37.162Z,7.43
2023-01-10T16:45:22.851Z,4.60
2023-01-10T16:48:08.929Z,5.28
2023-01-10T16:50:54.914Z,6.38
2023-01-10T16:53:40.685Z,6.15
2023-01-10T16:56:28.212Z,7.63
2023-01-10T16:59:16.196Z,10.02
2023-01-10T17:02:02.119Z,6.72
2023-01-10T17:04:47.907Z,8.40
2023-01-10T17:07:33.634Z,3.45
2023-01-10T17:10:19.699Z,3.80
2023-01-10T17:13:07.875Z,2.83
2023-01-10T17:15:53.314Z,2.45
2023-01-10T17:18:40.128Z,5.90
2023-01-10T17:21:27.761Z,4.50
2023-01-10T17:24:14.628Z,5.55
2023-01-10T17:27:00.245Z,1.90
2023-01-10T17:29:47.774Z,9.65
2023-01-10T17:32:34.050Z,3.05
2023-01-10T17:35:22.315Z,4.35
2023-01-10T17:38:10.719Z,4.30
2023-01-10T17:41:01.970Z,5.88
2023-01-10T17:43:47.532Z,2.58
2023-01-10T17:46:33.136Z,6.75
2023-01-10T17:49:18.924Z,4.78
2023-01-10T17:52:05.469Z,3.88
2023-01-10T17:54:51.010Z,5.30
2023-01-10T17:57:39.210Z,6.25
2023-01-10T18:00:27.089Z,5.68
2023-01-10T18:03:12.796Z,7.03
2023-01-10T18:05:59.504Z,6.45
2023-01-10T18:08:45.487Z,6.15
2023-01-10T18:11:31.758Z,7.43
2023-01-10T18:14:35.948Z,7.10
2023-01-10T18:17:21.383Z,4.25
2023-01-10T18:20:07.931Z,6.10
2023-01-10T18:23:12.179Z,6.88
2023-01-10T18:26:02.343Z,6.75
2023-01-10T18:28:48.053Z,7.63
2023-01-10T18:31:35.050Z,9.18
2023-01-10T18:34:20.726Z,7.63
2023-01-10T18:37:06.329Z,6.07
2023-01-10T18:39:51.929Z,5.75
2023-01-10T18:42:37.819Z,4.80
2023-01-10T18:45:26.340Z,6.18
2023-01-10T18:48:14.171Z,6.78
2023-01-10T18:51:01.605Z,5.55
2023-01-10T18:53:48.909Z,5.82
2023-01-10T18:56:34.675Z,8.50
2023-01-10T18:59:20.311Z,13.27
2023-01-10T19:02:13.756Z,13.93
2023-01-10T19:04:59.590Z,11.90
2023-01-10T19:07:45.041Z,7.50
2023-01-10T19:10:40.657Z,7.68
2023-01-10T19:13:35.936Z,10.82
2023-01-10T19:16:29.526Z,12.45
2023-01-10T19:19:15.645Z,10.82
2023-01-10T19:22:01.531Z,14.20
2023-01-10T19:24:47.435Z,16.05
2023-01-10T19:27:33.830Z,16.60
2023-01-10T19:30:19.472Z,20.83
2023-01-10T19:33:05.730Z,15.88
2023-01-10T19:35:51.767Z,19.73
2023-01-10T19:38:37.552Z,13.07
2023-01-10T19:41:24.403Z,11.05
2023-01-10T19:44:15.827Z,9.90
2023-01-10T19:47:01.281Z,13.10
2023-01-10T19:49:47.090Z,12.95
2023-01-10T19:52:32.334Z,14.02
2023-01-10T19:55:18.004Z,13.05
2023-01-10T19:58:03.760Z,12.80
2023-01-10T20:00:49.172Z,11.73
2023-01-10T20:03:35.071Z,14.55
2023-01-10T20:06:24.643Z,7.50
2023-01-10T20:09:12.300Z,8.80
2023-01-10T20:11:58.016Z,17.80
2023-01-10T20:14:43.562Z,10.35
2023-01-10T20:17:30.032Z,8.18
2023-01-10T20:20:16.733Z,7.28
2023-01-10T20:23:02.190Z,10.38
2023-01-10T20:26:02.497Z,7.57
2023-01-10T20:28:48.933Z,8.52
2023-01-10T20:31:34.672Z,10.60
2023-01-10T20:34:22.711Z,7.45
2023-01-10T20:37:08.635Z,6.60
2023-01-10T20:39:55.199Z,7.43
2023-01-10T20:42:41.055Z,6.18
2023-01-10T20:45:26.671Z,9.63
2023-01-10T20:48:12.295Z,10.90
2023-01-10T20:50:58.537Z,8.73
2023-01-10T20:53:44.713Z,12.63
2023-01-10T20:56:31.983Z,10.00
2023-01-10T20:59:17.797Z,10.13
2023-01-10T21:02:03.464Z,21.52
2023-01-10T21:04:50.638Z,15.63
2023-01-10T21:07:36.682Z,16.30
2023-01-10T21:10:22.304Z,15.70
2023-01-10T21:13:07.891Z,13.75
2023-01-10T21:15:55.910Z,11.63
2023-01-10T21:18:44.365Z,15.77
2023-01-10T21:21:30.065Z,15.52
2023-01-10T21:24:15.849Z,20.52
2023-01-10T21:27:01.619Z,21.10
2023-01-10T21:29:47.246Z,14.15
2023-01-10T21:32:33.129Z,14.35
2023-01-10T21:35:18.988Z,19.63
2023-01-10T21:38:05.565Z,14.13
2023-01-10T21:40:51.211Z,16.50
2023-01-10T21:43:37.120Z,19.60
2023-01-10T21:46:22.979Z,17.65
2023-01-10T21:49:09.820Z,17.55
2023-01-10T21:51:55.829Z,17.85
2023-01-10T21:54:41.484Z,17.30
2023-01-10T21:57:27.824Z,18.48
2023-01-10T22:00:13.994Z,25.85
2023-01-10T22:02:59.781Z,21.30
2023-01-10T22:05:45.575Z,21.40
2023-01-10T22:08:31.234Z,27.38
2023-01-10T22:11:16.739Z,34.60
2023-01-10T22:14:02.325Z,28.65
2023-01-10T22:16:47.812Z,27.83
2023-01-10T22:19:33.406Z,19.83
2023-01-10T22:22:19.104Z,19.58
2023-01-10T22:25:05.243Z,21.80
2023-01-10T22:27:53.322Z,24.92
2023-01-10T22:30:38.938Z,24.77
2023-01-10T22:33:27.513Z,26.40
2023-01-10T22:36:16.478Z,18.65
2023-01-10T22:39:02.059Z,20.60
2023-01-10T22:41:47.621Z,16.23
2023-01-10T22:44:33.197Z,16.20
2023-01-10T22:47:18.688Z,18.08
2023-01-10T22:50:04.538Z,18.80
2023-01-10T22:52:51.331Z,14.73
2023-01-10T22:55:36.935Z,18.35
2023-01-10T22:58:22.482Z,19.13
2023-01-10T23:01:08.565Z,18.95
2023-01-10T23:03:54.337Z,23.70
2023-01-10T23:06:39.992Z,17.83
2023-01-10T23:09:25.823Z,15.30
2023-01-10T23:12:11.476Z,13.98
2023-01-10T23:14:57.095Z,13.48
2023-01-10T23:17:42.609Z,14.13
2023-01-10T23:20:28.170Z,10.38
2023-01-10T23:23:13.683Z,8.70
2023-01-10T23:26:05.646Z,6.63
2023-01-10T23:28:52.364Z,9.50
2023-01-10T23:31:37.907Z,6.88
2023-01-10T23:34:23.853Z,12.02
2023-01-10T23:37:09.495Z,10.07
2023-01-10T23:39:55.635Z,17.70
2023-01-10T23:42:41.027Z,9.95
2023-01-10T23:45:26.689Z,9.35
2023-01-10T23:48:12.703Z,9.38
2023-01-10T23:50:58.794Z,8.00
2023-01-10T23:53:44.503Z,7.10
2023-01-10T23:56:30.065Z,8.38
2023-01-10T23:59:15.669Z,9.77
